Medenales, New Mexico
Current Conditions -  °F | °C
As of 7:15 PM on Friday 24 Oct 2014 (Local Time) from KLAM Reporting Station
Clear Clear  
Wind Chill: 64°   Ceiling: Unl
Heat Index: 64°   Visibility: 10mi
Dew Point: 29°   Wind: 6mph
Humidity: 26%   Direction: 270°W
Pressure: 30.37"   Gusts: NA
Location:  36.1769°N, 106.184°W
Report Text: KLAM 250115Z AUTO 27005KT 10SM CLR 18/M02 A3037 RMK AO2 T01791019
Loading
Personal Weather Stations






























Interactive Weather Map
Tropical Storm Tracking
New forecast layout! Learn more

10-Day Weather Forecast

Advertisements
Track Severe Weather on mobile